sensor_id;sensor_type;location;lat;lon;timestamp;P1;durP1;ratioP1;P2;durP2;ratioP2
24145;SDS011;12308;50.948;4.706;2023-05-17T00:00:47;15.80;;;4.38;;
24145;SDS011;12308;50.948;4.706;2023-05-17T00:03:13;18.58;;;4.75;;
24145;SDS011;12308;50.948;4.706;2023-05-17T00:05:39;20.55;;;4.45;;
24145;SDS011;12308;50.948;4.706;2023-05-17T00:08:04;21.92;;;5.05;;
24145;SDS011;12308;50.948;4.706;2023-05-17T00:10:30;13.13;;;4.40;;
24145;SDS011;12308;50.948;4.706;2023-05-17T00:12:56;11.52;;;4.38;;
24145;SDS011;12308;50.948;4.706;2023-05-17T00:15:21;10.23;;;4.25;;
24145;SDS011;12308;50.948;4.706;2023-05-17T00:17:47;11.73;;;4.57;;
24145;SDS011;12308;50.948;4.706;2023-05-17T00:20:13;12.70;;;3.97;;
24145;SDS011;12308;50.948;4.706;2023-05-17T00:22:39;12.80;;;4.00;;
24145;SDS011;12308;50.948;4.706;2023-05-17T00:25:05;23.23;;;5.32;;
24145;SDS011;12308;50.948;4.706;2023-05-17T00:27:31;14.82;;;4.50;;
24145;SDS011;12308;50.948;4.706;2023-05-17T00:29:57;15.07;;;4.78;;
24145;SDS011;12308;50.948;4.706;2023-05-17T00:32:23;13.07;;;5.32;;
24145;SDS011;12308;50.948;4.706;2023-05-17T00:34:48;14.32;;;4.75;;
24145;SDS011;12308;50.948;4.706;2023-05-17T00:37:14;16.98;;;5.38;;
24145;SDS011;12308;50.948;4.706;2023-05-17T00:39:39;17.75;;;4.97;;
24145;SDS011;12308;50.948;4.706;2023-05-17T00:42:05;17.92;;;5.65;;
24145;SDS011;12308;50.948;4.706;2023-05-17T00:44:31;15.95;;;4.97;;
24145;SDS011;12308;50.948;4.706;2023-05-17T00:46:56;17.33;;;5.07;;
24145;SDS011;12308;50.948;4.706;2023-05-17T00:49:24;15.55;;;4.80;;
24145;SDS011;12308;50.948;4.706;2023-05-17T00:51:50;20.92;;;4.72;;
24145;SDS011;12308;50.948;4.706;2023-05-17T00:54:17;14.02;;;5.05;;
24145;SDS011;12308;50.948;4.706;2023-05-17T00:56:43;16.83;;;5.07;;
24145;SDS011;12308;50.948;4.706;2023-05-17T00:59:09;15.85;;;4.85;;
24145;SDS011;12308;50.948;4.706;2023-05-17T01:01:40;12.00;;;4.93;;
24145;SDS011;12308;50.948;4.706;2023-05-17T01:04:07;13.88;;;4.75;;
24145;SDS011;12308;50.948;4.706;2023-05-17T01:06:34;17.83;;;4.78;;
24145;SDS011;12308;50.948;4.706;2023-05-17T01:09:00;8.43;;;4.18;;
24145;SDS011;12308;50.948;4.706;2023-05-17T01:16:49;16.27;;;4.78;;
24145;SDS011;12308;50.948;4.706;2023-05-17T01:24:45;14.95;;;4.88;;
24145;SDS011;12308;50.948;4.706;2023-05-17T01:27:35;12.35;;;4.85;;
24145;SDS011;12308;50.948;4.706;2023-05-17T01:30:05;13.13;;;5.40;;
24145;SDS011;12308;50.948;4.706;2023-05-17T01:32:33;17.08;;;5.30;;
24145;SDS011;12308;50.948;4.706;2023-05-17T01:34:59;14.93;;;4.95;;
24145;SDS011;12308;50.948;4.706;2023-05-17T01:37:27;13.80;;;5.10;;
24145;SDS011;12308;50.948;4.706;2023-05-17T01:39:53;13.23;;;5.70;;
24145;SDS011;12308;50.948;4.706;2023-05-17T01:47:43;16.35;;;5.80;;
24145;SDS011;12308;50.948;4.706;2023-05-17T01:50:18;19.25;;;5.95;;
24145;SDS011;12308;50.948;4.706;2023-05-17T01:55:53;16.75;;;5.78;;
24145;SDS011;12308;50.948;4.706;2023-05-17T01:58:27;21.85;;;6.05;;
24145;SDS011;12308;50.948;4.706;2023-05-17T02:00:55;11.00;;;5.45;;
24145;SDS011;12308;50.948;4.706;2023-05-17T02:03:22;15.82;;;4.80;;
24145;SDS011;12308;50.948;4.706;2023-05-17T02:05:48;9.63;;;5.00;;
24145;SDS011;12308;50.948;4.706;2023-05-17T02:08:14;20.13;;;6.18;;
24145;SDS011;12308;50.948;4.706;2023-05-17T02:10:40;17.02;;;5.93;;
24145;SDS011;12308;50.948;4.706;2023-05-17T02:13:05;19.30;;;6.63;;
24145;SDS011;12308;50.948;4.706;2023-05-17T02:15:31;21.63;;;7.07;;
24145;SDS011;12308;50.948;4.706;2023-05-17T02:17:57;20.90;;;7.18;;
24145;SDS011;12308;50.948;4.706;2023-05-17T02:20:23;18.08;;;6.28;;
24145;SDS011;12308;50.948;4.706;2023-05-17T02:22:48;18.20;;;7.47;;
24145;SDS011;12308;50.948;4.706;2023-05-17T02:25:14;19.40;;;7.22;;
24145;SDS011;12308;50.948;4.706;2023-05-17T02:27:40;18.25;;;7.05;;
24145;SDS011;12308;50.948;4.706;2023-05-17T02:30:06;12.27;;;6.72;;
24145;SDS011;12308;50.948;4.706;2023-05-17T02:32:32;15.27;;;6.50;;
24145;SDS011;12308;50.948;4.706;2023-05-17T02:34:58;12.15;;;6.00;;
24145;SDS011;12308;50.948;4.706;2023-05-17T02:37:24;17.65;;;6.28;;
24145;SDS011;12308;50.948;4.706;2023-05-17T02:39:50;17.15;;;6.82;;
24145;SDS011;12308;50.948;4.706;2023-05-17T02:42:15;21.00;;;7.53;;
24145;SDS011;12308;50.948;4.706;2023-05-17T02:44:41;15.15;;;7.18;;
24145;SDS011;12308;50.948;4.706;2023-05-17T02:47:07;19.17;;;6.70;;
24145;SDS011;12308;50.948;4.706;2023-05-17T02:49:32;15.77;;;6.75;;
24145;SDS011;12308;50.948;4.706;2023-05-17T02:51:58;16.50;;;6.65;;
24145;SDS011;12308;50.948;4.706;2023-05-17T02:54:24;13.63;;;6.47;;
24145;SDS011;12308;50.948;4.706;2023-05-17T02:56:50;17.40;;;6.90;;
24145;SDS011;12308;50.948;4.706;2023-05-17T02:59:16;16.55;;;7.53;;
24145;SDS011;12308;50.948;4.706;2023-05-17T03:01:42;18.80;;;7.40;;
24145;SDS011;12308;50.948;4.706;2023-05-17T03:04:07;20.52;;;7.18;;
24145;SDS011;12308;50.948;4.706;2023-05-17T03:06:33;17.77;;;7.55;;
24145;SDS011;12308;50.948;4.706;2023-05-17T03:08:59;16.77;;;7.95;;
24145;SDS011;12308;50.948;4.706;2023-05-17T03:11:24;15.23;;;6.60;;
24145;SDS011;12308;50.948;4.706;2023-05-17T03:13:50;16.58;;;7.55;;
24145;SDS011;12308;50.948;4.706;2023-05-17T03:16:16;20.88;;;7.97;;
24145;SDS011;12308;50.948;4.706;2023-05-17T03:18:42;18.55;;;8.35;;
24145;SDS011;12308;50.948;4.706;2023-05-17T03:21:08;18.45;;;8.50;;
24145;SDS011;12308;50.948;4.706;2023-05-17T03:23:34;17.08;;;8.38;;
24145;SDS011;12308;50.948;4.706;2023-05-17T03:26:00;16.67;;;9.32;;
24145;SDS011;12308;50.948;4.706;2023-05-17T03:28:26;19.17;;;8.63;;
24145;SDS011;12308;50.948;4.706;2023-05-17T03:30:51;25.20;;;9.55;;
24145;SDS011;12308;50.948;4.706;2023-05-17T03:33:18;17.13;;;9.25;;
24145;SDS011;12308;50.948;4.706;2023-05-17T03:35:43;16.63;;;9.82;;
24145;SDS011;12308;50.948;4.706;2023-05-17T03:38:12;19.20;;;9.27;;
24145;SDS011;12308;50.948;4.706;2023-05-17T03:40:37;16.27;;;7.88;;
24145;SDS011;12308;50.948;4.706;2023-05-17T03:43:03;16.52;;;8.20;;
24145;SDS011;12308;50.948;4.706;2023-05-17T03:45:29;17.60;;;8.43;;
24145;SDS011;12308;50.948;4.706;2023-05-17T03:47:55;18.65;;;9.52;;
24145;SDS011;12308;50.948;4.706;2023-05-17T03:50:20;19.00;;;9.48;;
24145;SDS011;12308;50.948;4.706;2023-05-17T03:52:46;17.25;;;8.88;;
24145;SDS011;12308;50.948;4.706;2023-05-17T03:55:12;14.73;;;7.75;;
24145;SDS011;12308;50.948;4.706;2023-05-17T03:57:38;15.15;;;8.15;;
24145;SDS011;12308;50.948;4.706;2023-05-17T04:00:04;20.45;;;8.50;;
24145;SDS011;12308;50.948;4.706;2023-05-17T04:02:36;14.50;;;7.60;;
24145;SDS011;12308;50.948;4.706;2023-05-17T04:05:02;20.27;;;9.65;;
24145;SDS011;12308;50.948;4.706;2023-05-17T04:07:28;19.75;;;8.88;;
24145;SDS011;12308;50.948;4.706;2023-05-17T04:09:57;14.70;;;9.00;;
24145;SDS011;12308;50.948;4.706;2023-05-17T04:12:23;19.10;;;9.35;;
24145;SDS011;12308;50.948;4.706;2023-05-17T04:14:49;20.42;;;9.52;;
24145;SDS011;12308;50.948;4.706;2023-05-17T04:17:15;22.30;;;10.18;;
24145;SDS011;12308;50.948;4.706;2023-05-17T04:19:40;19.13;;;10.77;;
24145;SDS011;12308;50.948;4.706;2023-05-17T04:22:06;18.83;;;10.32;;
24145;SDS011;12308;50.948;4.706;2023-05-17T04:24:32;18.10;;;10.02;;
24145;SDS011;12308;50.948;4.706;2023-05-17T04:26:57;23.08;;;11.07;;
24145;SDS011;12308;50.948;4.706;2023-05-17T04:29:23;21.02;;;11.10;;
24145;SDS011;12308;50.948;4.706;2023-05-17T04:31:49;18.75;;;10.50;;
24145;SDS011;12308;50.948;4.706;2023-05-17T04:34:15;24.98;;;11.93;;
24145;SDS011;12308;50.948;4.706;2023-05-17T04:36:41;21.65;;;12.32;;
24145;SDS011;12308;50.948;4.706;2023-05-17T04:39:07;30.70;;;12.32;;
24145;SDS011;12308;50.948;4.706;2023-05-17T04:41:33;27.92;;;13.85;;
24145;SDS011;12308;50.948;4.706;2023-05-17T04:43:58;30.42;;;13.50;;
24145;SDS011;12308;50.948;4.706;2023-05-17T04:46:24;25.17;;;14.52;;
24145;SDS011;12308;50.948;4.706;2023-05-17T04:48:50;26.00;;;14.20;;
24145;SDS011;12308;50.948;4.706;2023-05-17T04:51:17;32.15;;;14.32;;
24145;SDS011;12308;50.948;4.706;2023-05-17T04:53:43;33.22;;;14.95;;
24145;SDS011;12308;50.948;4.706;2023-05-17T04:56:08;31.50;;;14.73;;
24145;SDS011;12308;50.948;4.706;2023-05-17T04:58:34;32.08;;;14.63;;
24145;SDS011;12308;50.948;4.706;2023-05-17T05:01:00;31.67;;;14.95;;
24145;SDS011;12308;50.948;4.706;2023-05-17T05:03:25;33.88;;;15.13;;
24145;SDS011;12308;50.948;4.706;2023-05-17T05:05:51;33.60;;;16.50;;
24145;SDS011;12308;50.948;4.706;2023-05-17T05:08:17;33.92;;;15.60;;
24145;SDS011;12308;50.948;4.706;2023-05-17T05:10:42;33.15;;;16.23;;
24145;SDS011;12308;50.948;4.706;2023-05-17T05:13:08;33.92;;;15.82;;
24145;SDS011;12308;50.948;4.706;2023-05-17T05:15:34;32.40;;;17.27;;
24145;SDS011;12308;50.948;4.706;2023-05-17T05:18:00;35.30;;;18.30;;
24145;SDS011;12308;50.948;4.706;2023-05-17T05:20:25;33.72;;;17.58;;
24145;SDS011;12308;50.948;4.706;2023-05-17T05:22:51;30.38;;;18.30;;
24145;SDS011;12308;50.948;4.706;2023-05-17T05:25:17;36.38;;;17.58;;
24145;SDS011;12308;50.948;4.706;2023-05-17T05:27:42;37.58;;;17.88;;
24145;SDS011;12308;50.948;4.706;2023-05-17T05:30:08;31.08;;;17.10;;
24145;SDS011;12308;50.948;4.706;2023-05-17T05:32:34;38.45;;;17.40;;
24145;SDS011;12308;50.948;4.706;2023-05-17T05:35:02;34.58;;;17.33;;
24145;SDS011;12308;50.948;4.706;2023-05-17T05:37:29;34.00;;;18.23;;
24145;SDS011;12308;50.948;4.706;2023-05-17T05:39:55;36.10;;;17.00;;
24145;SDS011;12308;50.948;4.706;2023-05-17T05:42:21;38.58;;;18.00;;
24145;SDS011;12308;50.948;4.706;2023-05-17T05:44:47;39.22;;;17.25;;
24145;SDS011;12308;50.948;4.706;2023-05-17T05:47:13;42.47;;;17.27;;
24145;SDS011;12308;50.948;4.706;2023-05-17T05:49:38;36.83;;;16.20;;
24145;SDS011;12308;50.948;4.706;2023-05-17T05:52:04;32.92;;;16.45;;
24145;SDS011;12308;50.948;4.706;2023-05-17T05:54:30;39.78;;;16.85;;
24145;SDS011;12308;50.948;4.706;2023-05-17T05:56:55;30.48;;;16.23;;
24145;SDS011;12308;50.948;4.706;2023-05-17T05:59:21;32.40;;;15.13;;
24145;SDS011;12308;50.948;4.706;2023-05-17T06:01:47;36.05;;;17.10;;
24145;SDS011;12308;50.948;4.706;2023-05-17T06:04:12;35.33;;;17.23;;
24145;SDS011;12308;50.948;4.706;2023-05-17T06:06:38;38.10;;;18.42;;
24145;SDS011;12308;50.948;4.706;2023-05-17T06:09:04;37.85;;;18.58;;
24145;SDS011;12308;50.948;4.706;2023-05-17T06:11:31;43.88;;;18.45;;
24145;SDS011;12308;50.948;4.706;2023-05-17T06:13:57;39.88;;;19.10;;
24145;SDS011;12308;50.948;4.706;2023-05-17T06:16:22;26.48;;;16.33;;
24145;SDS011;12308;50.948;4.706;2023-05-17T06:18:48;32.83;;;16.40;;
24145;SDS011;12308;50.948;4.706;2023-05-17T06:21:14;30.33;;;16.58;;
24145;SDS011;12308;50.948;4.706;2023-05-17T06:23:41;48.67;;;17.27;;
24145;SDS011;12308;50.948;4.706;2023-05-17T06:26:07;37.05;;;16.58;;
24145;SDS011;12308;50.948;4.706;2023-05-17T06:28:34;42.45;;;15.82;;
24145;SDS011;12308;50.948;4.706;2023-05-17T06:31:03;40.03;;;16.50;;
24145;SDS011;12308;50.948;4.706;2023-05-17T06:33:29;29.75;;;15.30;;
24145;SDS011;12308;50.948;4.706;2023-05-17T06:35:54;35.40;;;14.85;;
24145;SDS011;12308;50.948;4.706;2023-05-17T06:38:23;32.55;;;14.55;;
24145;SDS011;12308;50.948;4.706;2023-05-17T06:40:52;34.58;;;15.02;;
24145;SDS011;12308;50.948;4.706;2023-05-17T06:43:19;38.20;;;15.02;;
24145;SDS011;12308;50.948;4.706;2023-05-17T06:45:45;32.80;;;13.68;;
24145;SDS011;12308;50.948;4.706;2023-05-17T06:48:11;38.65;;;15.77;;
24145;SDS011;12308;50.948;4.706;2023-05-17T06:50:37;38.55;;;13.98;;
24145;SDS011;12308;50.948;4.706;2023-05-17T06:53:02;40.97;;;14.82;;
24145;SDS011;12308;50.948;4.706;2023-05-17T06:55:28;35.15;;;15.57;;
24145;SDS011;12308;50.948;4.706;2023-05-17T06:57:54;34.08;;;13.73;;
24145;SDS011;12308;50.948;4.706;2023-05-17T07:00:20;37.33;;;13.93;;
24145;SDS011;12308;50.948;4.706;2023-05-17T07:02:46;33.05;;;13.45;;
24145;SDS011;12308;50.948;4.706;2023-05-17T07:05:12;35.20;;;13.68;;
24145;SDS011;12308;50.948;4.706;2023-05-17T07:07:38;28.02;;;11.32;;
24145;SDS011;12308;50.948;4.706;2023-05-17T07:10:04;34.90;;;11.05;;
24145;SDS011;12308;50.948;4.706;2023-05-17T07:12:31;27.08;;;10.35;;
24145;SDS011;12308;50.948;4.706;2023-05-17T07:14:58;33.60;;;10.50;;
24145;SDS011;12308;50.948;4.706;2023-05-17T07:17:23;34.22;;;10.05;;
24145;SDS011;12308;50.948;4.706;2023-05-17T07:19:49;29.08;;;10.70;;
24145;SDS011;12308;50.948;4.706;2023-05-17T07:22:16;33.55;;;10.10;;
24145;SDS011;12308;50.948;4.706;2023-05-17T07:24:42;34.35;;;9.63;;
24145;SDS011;12308;50.948;4.706;2023-05-17T07:27:09;36.08;;;9.00;;
24145;SDS011;12308;50.948;4.706;2023-05-17T07:29:34;28.30;;;9.07;;
24145;SDS011;12308;50.948;4.706;2023-05-17T07:32:00;23.30;;;7.80;;
24145;SDS011;12308;50.948;4.706;2023-05-17T07:34:26;24.70;;;7.95;;
24145;SDS011;12308;50.948;4.706;2023-05-17T07:36:52;29.40;;;8.40;;
24145;SDS011;12308;50.948;4.706;2023-05-17T07:39:17;31.85;;;9.10;;
24145;SDS011;12308;50.948;4.706;2023-05-17T07:41:43;25.38;;;7.85;;
24145;SDS011;12308;50.948;4.706;2023-05-17T07:44:08;22.63;;;7.13;;
24145;SDS011;12308;50.948;4.706;2023-05-17T07:46:35;22.58;;;7.80;;
24145;SDS011;12308;50.948;4.706;2023-05-17T07:49:01;24.98;;;7.72;;
24145;SDS011;12308;50.948;4.706;2023-05-17T07:51:26;21.13;;;7.45;;
24145;SDS011;12308;50.948;4.706;2023-05-17T07:53:52;20.25;;;6.78;;
24145;SDS011;12308;50.948;4.706;2023-05-17T07:56:18;29.92;;;7.05;;
24145;SDS011;12308;50.948;4.706;2023-05-17T07:58:43;23.05;;;7.00;;
24145;SDS011;12308;50.948;4.706;2023-05-17T08:01:09;15.43;;;5.97;;
24145;SDS011;12308;50.948;4.706;2023-05-17T08:03:35;17.35;;;6.28;;
24145;SDS011;12308;50.948;4.706;2023-05-17T08:06:01;23.45;;;6.20;;
24145;SDS011;12308;50.948;4.706;2023-05-17T08:08:27;18.58;;;5.85;;
24145;SDS011;12308;50.948;4.706;2023-05-17T08:10:52;27.77;;;5.82;;
24145;SDS011;12308;50.948;4.706;2023-05-17T08:13:18;18.50;;;6.00;;
24145;SDS011;12308;50.948;4.706;2023-05-17T08:15:44;27.17;;;6.30;;
24145;SDS011;12308;50.948;4.706;2023-05-17T08:18:09;17.90;;;5.57;;
24145;SDS011;12308;50.948;4.706;2023-05-17T08:20:35;21.95;;;5.72;;
24145;SDS011;12308;50.948;4.706;2023-05-17T08:23:01;14.80;;;5.07;;
24145;SDS011;12308;50.948;4.706;2023-05-17T08:25:27;24.35;;;5.30;;
24145;SDS011;12308;50.948;4.706;2023-05-17T08:27:53;16.65;;;4.93;;
24145;SDS011;12308;50.948;4.706;2023-05-17T08:30:18;15.68;;;4.72;;
24145;SDS011;12308;50.948;4.706;2023-05-17T08:32:44;20.48;;;5.25;;
24145;SDS011;12308;50.948;4.706;2023-05-17T08:35:11;21.00;;;6.80;;
24145;SDS011;12308;50.948;4.706;2023-05-17T08:37:37;19.75;;;6.72;;
24145;SDS011;12308;50.948;4.706;2023-05-17T08:40:03;18.55;;;6.35;;
24145;SDS011;12308;50.948;4.706;2023-05-17T08:42:30;18.90;;;6.53;;
24145;SDS011;12308;50.948;4.706;2023-05-17T08:44:57;17.52;;;6.35;;
24145;SDS011;12308;50.948;4.706;2023-05-17T08:47:23;21.73;;;6.93;;
24145;SDS011;12308;50.948;4.706;2023-05-17T08:49:56;18.17;;;5.80;;
24145;SDS011;12308;50.948;4.706;2023-05-17T08:52:28;17.40;;;5.57;;
24145;SDS011;12308;50.948;4.706;2023-05-17T08:54:55;22.02;;;5.28;;
24145;SDS011;12308;50.948;4.706;2023-05-17T08:57:22;18.48;;;4.97;;
24145;SDS011;12308;50.948;4.706;2023-05-17T08:59:51;13.95;;;4.72;;
24145;SDS011;12308;50.948;4.706;2023-05-17T09:02:19;15.70;;;4.63;;
24145;SDS011;12308;50.948;4.706;2023-05-17T09:04:46;12.93;;;4.20;;
24145;SDS011;12308;50.948;4.706;2023-05-17T09:07:14;18.25;;;4.53;;
24145;SDS011;12308;50.948;4.706;2023-05-17T09:09:40;20.30;;;4.68;;
24145;SDS011;12308;50.948;4.706;2023-05-17T09:12:06;13.20;;;4.18;;
24145;SDS011;12308;50.948;4.706;2023-05-17T09:14:33;10.98;;;4.30;;
24145;SDS011;12308;50.948;4.706;2023-05-17T09:17:01;16.10;;;4.25;;
24145;SDS011;12308;50.948;4.706;2023-05-17T09:19:27;20.10;;;4.43;;
24145;SDS011;12308;50.948;4.706;2023-05-17T09:21:55;17.25;;;4.18;;
24145;SDS011;12308;50.948;4.706;2023-05-17T09:24:28;20.58;;;5.05;;
24145;SDS011;12308;50.948;4.706;2023-05-17T09:26:55;14.40;;;4.72;;
24145;SDS011;12308;50.948;4.706;2023-05-17T09:29:31;18.42;;;4.93;;
24145;SDS011;12308;50.948;4.706;2023-05-17T09:32:10;14.60;;;4.00;;
24145;SDS011;12308;50.948;4.706;2023-05-17T09:34:40;21.13;;;4.57;;
24145;SDS011;12308;50.948;4.706;2023-05-17T09:37:13;18.13;;;4.03;;
24145;SDS011;12308;50.948;4.706;2023-05-17T09:39:41;19.77;;;3.67;;
24145;SDS011;12308;50.948;4.706;2023-05-17T09:42:09;14.55;;;3.38;;
24145;SDS011;12308;50.948;4.706;2023-05-17T09:44:48;15.70;;;3.53;;
24145;SDS011;12308;50.948;4.706;2023-05-17T09:47:30;16.33;;;3.88;;
24145;SDS011;12308;50.948;4.706;2023-05-17T09:50:00;16.65;;;3.33;;
24145;SDS011;12308;50.948;4.706;2023-05-17T09:52:27;17.08;;;3.25;;
24145;SDS011;12308;50.948;4.706;2023-05-17T09:54:57;14.30;;;2.90;;
24145;SDS011;12308;50.948;4.706;2023-05-17T09:57:25;21.13;;;4.60;;
24145;SDS011;12308;50.948;4.706;2023-05-17T09:59:55;15.38;;;3.80;;
24145;SDS011;12308;50.948;4.706;2023-05-17T10:02:30;17.88;;;4.38;;
24145;SDS011;12308;50.948;4.706;2023-05-17T10:04:57;16.38;;;3.85;;
24145;SDS011;12308;50.948;4.706;2023-05-17T10:07:29;12.73;;;3.17;;
24145;SDS011;12308;50.948;4.706;2023-05-17T10:09:56;12.18;;;3.50;;
24145;SDS011;12308;50.948;4.706;2023-05-17T10:12:26;20.88;;;4.22;;
24145;SDS011;12308;50.948;4.706;2023-05-17T10:14:55;15.98;;;3.60;;
24145;SDS011;12308;50.948;4.706;2023-05-17T10:17:23;14.18;;;3.40;;
24145;SDS011;12308;50.948;4.706;2023-05-17T10:19:51;15.40;;;3.78;;
24145;SDS011;12308;50.948;4.706;2023-05-17T10:22:19;14.32;;;3.63;;
24145;SDS011;12308;50.948;4.706;2023-05-17T10:24:46;19.25;;;4.18;;
24145;SDS011;12308;50.948;4.706;2023-05-17T10:27:13;21.83;;;3.80;;
24145;SDS011;12308;50.948;4.706;2023-05-17T10:29:40;17.77;;;3.58;;
24145;SDS011;12308;50.948;4.706;2023-05-17T10:32:06;17.35;;;3.55;;
24145;SDS011;12308;50.948;4.706;2023-05-17T10:34:34;16.60;;;3.47;;
24145;SDS011;12308;50.948;4.706;2023-05-17T10:37:00;15.75;;;3.65;;
24145;SDS011;12308;50.948;4.706;2023-05-17T10:39:28;15.85;;;3.20;;
24145;SDS011;12308;50.948;4.706;2023-05-17T10:41:56;15.35;;;3.10;;
24145;SDS011;12308;50.948;4.706;2023-05-17T10:44:23;20.38;;;3.58;;
24145;SDS011;12308;50.948;4.706;2023-05-17T10:46:53;13.52;;;3.35;;
24145;SDS011;12308;50.948;4.706;2023-05-17T10:49:22;16.80;;;4.05;;
24145;SDS011;12308;50.948;4.706;2023-05-17T10:51:50;21.10;;;3.38;;
24145;SDS011;12308;50.948;4.706;2023-05-17T10:54:16;22.45;;;4.30;;
24145;SDS011;12308;50.948;4.706;2023-05-17T10:56:48;16.33;;;3.28;;
24145;SDS011;12308;50.948;4.706;2023-05-17T11:04:35;15.32;;;3.85;;
24145;SDS011;12308;50.948;4.706;2023-05-17T11:10:04;18.77;;;3.80;;
24145;SDS011;12308;50.948;4.706;2023-05-17T11:12:39;20.33;;;3.65;;
24145;SDS011;12308;50.948;4.706;2023-05-17T11:15:16;18.50;;;3.28;;
24145;SDS011;12308;50.948;4.706;2023-05-17T11:22:48;15.50;;;3.35;;
24145;SDS011;12308;50.948;4.706;2023-05-17T11:25:31;18.85;;;3.80;;
24145;SDS011;12308;50.948;4.706;2023-05-17T11:27:59;15.38;;;3.53;;
24145;SDS011;12308;50.948;4.706;2023-05-17T11:30:42;18.05;;;3.72;;
24145;SDS011;12308;50.948;4.706;2023-05-17T11:33:15;11.68;;;3.70;;
24145;SDS011;12308;50.948;4.706;2023-05-17T11:35:41;18.33;;;3.88;;
24145;SDS011;12308;50.948;4.706;2023-05-17T11:38:12;20.33;;;4.32;;
24145;SDS011;12308;50.948;4.706;2023-05-17T11:40:47;13.15;;;3.72;;
24145;SDS011;12308;50.948;4.706;2023-05-17T11:43:15;14.85;;;3.63;;
24145;SDS011;12308;50.948;4.706;2023-05-17T11:45:51;11.30;;;3.28;;
24145;SDS011;12308;50.948;4.706;2023-05-17T11:48:19;12.60;;;3.70;;
24145;SDS011;12308;50.948;4.706;2023-05-17T11:50:47;13.57;;;3.22;;
24145;SDS011;12308;50.948;4.706;2023-05-17T11:53:14;12.18;;;3.00;;
24145;SDS011;12308;50.948;4.706;2023-05-17T11:55:41;15.35;;;3.42;;
24145;SDS011;12308;50.948;4.706;2023-05-17T11:58:08;9.07;;;2.40;;
24145;SDS011;12308;50.948;4.706;2023-05-17T12:00:36;13.98;;;2.72;;
24145;SDS011;12308;50.948;4.706;2023-05-17T12:03:14;13.90;;;2.97;;
24145;SDS011;12308;50.948;4.706;2023-05-17T12:05:45;14.15;;;2.85;;
24145;SDS011;12308;50.948;4.706;2023-05-17T12:08:13;11.90;;;2.45;;
24145;SDS011;12308;50.948;4.706;2023-05-17T12:13:18;10.85;;;2.30;;
24145;SDS011;12308;50.948;4.706;2023-05-17T12:15:55;11.60;;;3.00;;
24145;SDS011;12308;50.948;4.706;2023-05-17T12:18:22;10.13;;;2.80;;
24145;SDS011;12308;50.948;4.706;2023-05-17T12:20:59;10.98;;;2.47;;
24145;SDS011;12308;50.948;4.706;2023-05-17T12:23:27;8.75;;;2.80;;
24145;SDS011;12308;50.948;4.706;2023-05-17T12:26:03;9.52;;;3.03;;
24145;SDS011;12308;50.948;4.706;2023-05-17T12:28:30;11.07;;;3.80;;
24145;SDS011;12308;50.948;4.706;2023-05-17T12:30:56;14.15;;;3.20;;
24145;SDS011;12308;50.948;4.706;2023-05-17T12:33:25;7.28;;;2.50;;
24145;SDS011;12308;50.948;4.706;2023-05-17T12:35:51;16.83;;;2.92;;
24145;SDS011;12308;50.948;4.706;2023-05-17T12:38:17;11.02;;;2.53;;
24145;SDS011;12308;50.948;4.706;2023-05-17T12:40:44;13.43;;;2.75;;
24145;SDS011;12308;50.948;4.706;2023-05-17T12:43:10;17.60;;;3.00;;
24145;SDS011;12308;50.948;4.706;2023-05-17T12:45:36;8.07;;;2.67;;
24145;SDS011;12308;50.948;4.706;2023-05-17T12:48:05;11.65;;;3.05;;
24145;SDS011;12308;50.948;4.706;2023-05-17T12:50:31;10.65;;;2.50;;
24145;SDS011;12308;50.948;4.706;2023-05-17T12:52:57;13.02;;;3.17;;
24145;SDS011;12308;50.948;4.706;2023-05-17T12:55:22;11.23;;;2.90;;
24145;SDS011;12308;50.948;4.706;2023-05-17T12:57:52;17.67;;;3.25;;
24145;SDS011;12308;50.948;4.706;2023-05-17T13:00:18;8.70;;;2.78;;
24145;SDS011;12308;50.948;4.706;2023-05-17T13:02:45;8.23;;;2.60;;
24145;SDS011;12308;50.948;4.706;2023-05-17T13:05:15;12.27;;;2.88;;
24145;SDS011;12308;50.948;4.706;2023-05-17T13:07:47;9.15;;;2.30;;
24145;SDS011;12308;50.948;4.706;2023-05-17T13:10:20;11.45;;;2.72;;
24145;SDS011;12308;50.948;4.706;2023-05-17T13:12:56;10.10;;;2.65;;
24145;SDS011;12308;50.948;4.706;2023-05-17T13:15:30;9.65;;;3.28;;
24145;SDS011;12308;50.948;4.706;2023-05-17T13:17:57;11.40;;;2.88;;
24145;SDS011;12308;50.948;4.706;2023-05-17T13:20:24;11.73;;;3.47;;
24145;SDS011;12308;50.948;4.706;2023-05-17T13:22:50;12.43;;;3.05;;
24145;SDS011;12308;50.948;4.706;2023-05-17T13:25:16;15.00;;;3.20;;
24145;SDS011;12308;50.948;4.706;2023-05-17T13:27:43;13.10;;;3.38;;
24145;SDS011;12308;50.948;4.706;2023-05-17T13:30:12;11.68;;;3.33;;
24145;SDS011;12308;50.948;4.706;2023-05-17T13:32:39;10.57;;;3.00;;
24145;SDS011;12308;50.948;4.706;2023-05-17T13:35:05;17.08;;;3.38;;
24145;SDS011;12308;50.948;4.706;2023-05-17T13:37:31;11.20;;;3.47;;
24145;SDS011;12308;50.948;4.706;2023-05-17T13:39:57;4.78;;;2.45;;
24145;SDS011;12308;50.948;4.706;2023-05-17T13:42:22;9.98;;;2.50;;
24145;SDS011;12308;50.948;4.706;2023-05-17T13:44:48;8.88;;;3.00;;
24145;SDS011;12308;50.948;4.706;2023-05-17T13:47:14;8.88;;;2.85;;
24145;SDS011;12308;50.948;4.706;2023-05-17T13:49:40;14.55;;;2.70;;
24145;SDS011;12308;50.948;4.706;2023-05-17T13:52:06;14.57;;;3.40;;
24145;SDS011;12308;50.948;4.706;2023-05-17T13:54:37;12.00;;;3.17;;
24145;SDS011;12308;50.948;4.706;2023-05-17T13:57:03;12.65;;;3.00;;
24145;SDS011;12308;50.948;4.706;2023-05-17T13:59:31;113.43;;;9.57;;
24145;SDS011;12308;50.948;4.706;2023-05-17T14:01:57;16.52;;;3.72;;
24145;SDS011;12308;50.948;4.706;2023-05-17T14:04:22;19.20;;;3.65;;
24145;SDS011;12308;50.948;4.706;2023-05-17T14:06:48;11.90;;;2.65;;
24145;SDS011;12308;50.948;4.706;2023-05-17T14:09:15;12.80;;;3.20;;
24145;SDS011;12308;50.948;4.706;2023-05-17T14:11:41;11.32;;;2.80;;
24145;SDS011;12308;50.948;4.706;2023-05-17T14:14:07;13.93;;;3.17;;
24145;SDS011;12308;50.948;4.706;2023-05-17T14:16:32;13.90;;;3.30;;
24145;SDS011;12308;50.948;4.706;2023-05-17T14:18:59;13.10;;;2.72;;
24145;SDS011;12308;50.948;4.706;2023-05-17T14:21:25;10.82;;;2.72;;
24145;SDS011;12308;50.948;4.706;2023-05-17T14:23:50;9.20;;;3.08;;
24145;SDS011;12308;50.948;4.706;2023-05-17T14:26:16;11.38;;;3.10;;
24145;SDS011;12308;50.948;4.706;2023-05-17T14:28:42;12.32;;;3.25;;
24145;SDS011;12308;50.948;4.706;2023-05-17T14:31:08;11.57;;;3.00;;
24145;SDS011;12308;50.948;4.706;2023-05-17T14:33:34;12.77;;;3.42;;
24145;SDS011;12308;50.948;4.706;2023-05-17T14:36:00;30.60;;;4.55;;
24145;SDS011;12308;50.948;4.706;2023-05-17T14:38:28;11.20;;;3.40;;
24145;SDS011;12308;50.948;4.706;2023-05-17T14:40:53;20.15;;;3.72;;
24145;SDS011;12308;50.948;4.706;2023-05-17T14:43:19;18.30;;;3.92;;
24145;SDS011;12308;50.948;4.706;2023-05-17T14:45:45;7.88;;;3.15;;
24145;SDS011;12308;50.948;4.706;2023-05-17T14:48:11;10.15;;;3.28;;
24145;SDS011;12308;50.948;4.706;2023-05-17T14:50:37;8.52;;;2.67;;
24145;SDS011;12308;50.948;4.706;2023-05-17T14:53:02;10.90;;;3.45;;
24145;SDS011;12308;50.948;4.706;2023-05-17T14:55:28;11.35;;;3.47;;
24145;SDS011;12308;50.948;4.706;2023-05-17T14:57:54;11.25;;;3.25;;
24145;SDS011;12308;50.948;4.706;2023-05-17T15:00:21;8.68;;;3.47;;
24145;SDS011;12308;50.948;4.706;2023-05-17T15:02:48;11.20;;;3.55;;
24145;SDS011;12308;50.948;4.706;2023-05-17T15:05:15;8.30;;;3.10;;
24145;SDS011;12308;50.948;4.706;2023-05-17T15:07:41;11.98;;;3.47;;